Time;durP1;ratioP1;P1;durP2;ratioP2;P2;SDS_P1;SDS_P2;PMS_P1;PMS_P2;Temp;Humidity;BMP_temperature;BMP_pressure;BME280_temperature;BME280_humidity;BME280_pressure;Samples;Min_cycle;Max_cycle;Signal;HPM_P1;HPM_P2
2024/01/30 00:02:23;;;;;;;35.17;17.98;;;;;;;2.31;57.48;102098.97;7765129;32;37152;-80
2024/01/30 00:06:40;;;;;;;38.13;18.30;;;;;;;2.24;57.32;102102.31;7765030;32;39332;-80
2024/01/30 00:10:56;;;;;;;35.42;19.02;;;;;;;2.21;58.51;102102.62;7764996;32;39706;-80
2024/01/30 00:15:13;;;;;;;32.70;17.85;;;;;;;1.95;59.40;102104.47;7764986;32;37771;-81
2024/01/30 00:19:29;;;;;;;33.45;17.60;;;;;;;2.16;58.23;102101.44;7764996;32;37228;-80
2024/01/30 00:23:45;;;;;;;39.40;19.05;;;;;;;2.15;58.15;102097.87;7764701;32;39413;-80
2024/01/30 00:28:02;;;;;;;32.47;17.08;;;;;;;2.41;57.84;102105.91;7764891;32;40837;-80
2024/01/30 00:32:19;;;;;;;36.03;17.60;;;;;;;2.25;58.72;102103.16;7764361;32;38577;-80
2024/01/30 00:36:35;;;;;;;30.40;16.27;;;;;;;2.21;58.71;102117.94;7764436;32;37308;-80
2024/01/30 00:40:51;;;;;;;30.60;16.90;;;;;;;1.99;59.17;102111.25;7764572;32;40370;-80
2024/01/30 00:45:14;;;;;;;35.75;18.65;;;;;;;2.22;57.73;102111.53;7764866;32;39644;-80
2024/01/30 00:49:30;;;;;;;31.73;17.33;;;;;;;2.22;57.54;102115.06;7764253;32;39051;-80
2024/01/30 00:53:47;;;;;;;34.42;18.37;;;;;;;2.09;58.23;102120.06;7764359;32;37250;-80
2024/01/30 00:58:03;;;;;;;35.05;17.80;;;;;;;1.95;58.99;102112.53;7764812;32;39262;-80
2024/01/30 01:02:19;;;;;;;33.97;18.35;;;;;;;2.03;58.77;102116.12;7764116;32;40977;-80
2024/01/30 01:06:36;;;;;;;31.52;17.70;;;;;;;2.03;58.63;102112.59;7764064;32;37972;-80
2024/01/30 01:10:52;;;;;;;34.28;16.52;;;;;;;2.02;58.79;102100.16;7764001;32;37933;-80
2024/01/30 01:15:09;;;;;;;25.85;16.12;;;;;;;2.14;58.26;102104.28;7763942;32;39093;-80
2024/01/30 01:19:26;;;;;;;29.55;17.35;;;;;;;1.91;58.07;102098.56;7763365;32;40775;-80
2024/01/30 01:23:43;;;;;;;36.88;18.12;;;;;;;1.87;57.75;102100.72;7763477;32;38453;-80
2024/01/30 01:28:01;;;;;;;31.83;17.25;;;;;;;2.09;57.71;102093.16;7763533;32;37318;-79
2024/01/30 01:32:18;;;;;;;33.40;18.10;;;;;;;2.07;57.43;102087.09;7763327;32;40142;-80
2024/01/30 01:36:34;;;;;;;33.13;18.42;;;;;;;1.97;57.77;102089.88;7763092;32;39989;-79
2024/01/30 01:40:51;;;;;;;31.50;17.83;;;;;;;2.05;57.25;102089.94;7763216;32;38533;-79
2024/01/30 01:45:08;;;;;;;33.22;18.90;;;;;;;2.02;57.59;102097.47;7766630;32;37962;-80
2024/01/30 01:49:28;;;;;;;32.65;18.60;;;;;;;2.01;57.47;102090.41;7766731;32;39450;-80
2024/01/30 01:53:45;;;;;;;33.53;19.75;;;;;;;1.90;57.71;102085.28;7766574;32;40763;-80
2024/01/30 01:58:01;;;;;;;38.05;19.35;;;;;;;1.94;58.21;102083.97;7766588;32;38056;-80
2024/01/30 02:02:19;;;;;;;33.88;17.70;;;;;;;1.97;58.50;102086.34;7752837;32;37227;-80
2024/01/30 02:06:35;;;;;;;33.78;17.55;;;;;;;1.86;59.01;102082.91;7766388;32;39432;-80
2024/01/30 02:10:52;;;;;;;36.75;17.80;;;;;;;1.72;59.00;102086.16;7766423;32;39872;-80
2024/01/30 02:15:08;;;;;;;29.92;16.95;;;;;;;1.87;58.39;102078.38;7766389;32;38637;-80
2024/01/30 02:19:25;;;;;;;28.65;15.82;;;;;;;1.55;58.72;102077.13;7766371;32;37420;-80
2024/01/30 02:23:42;;;;;;;31.75;17.23;;;;;;;1.50;59.21;102077.63;7765974;32;39457;-80
2024/01/30 02:27:59;;;;;;;34.00;16.62;;;;;;;1.81;58.63;102077.16;7766299;32;40760;-80
2024/01/30 02:32:15;;;;;;;26.45;14.73;;;;;;;1.75;58.47;102068.88;7766100;32;38077;-80
2024/01/30 02:36:32;;;;;;;27.15;16.08;;;;;;;1.74;58.36;102068.03;7765951;32;37204;-80
2024/01/30 02:40:48;;;;;;;32.75;16.27;;;;;;;1.37;59.38;102071.78;7765857;32;39291;-80
2024/01/30 02:45:05;;;;;;;31.40;15.82;;;;;;;1.34;60.05;102065.88;7766191;32;40659;-80
2024/01/30 02:49:21;;;;;;;30.37;17.23;;;;;;;1.32;60.66;102074.09;7764850;32;37920;-79
2024/01/30 02:53:38;;;;;;;33.40;17.17;;;;;;;1.26;61.04;102080.06;7751886;32;37219;-80
2024/01/30 02:57:54;;;;;;;30.33;17.20;;;;;;;0.93;62.89;102077.06;7765561;32;39103;-80
2024/01/30 03:02:11;;;;;;;33.78;17.42;;;;;;;1.17;62.02;102079.16;7765921;32;39835;-79
2024/01/30 03:06:27;;;;;;;31.87;16.87;;;;;;;1.41;60.83;102086.59;7765842;32;38748;-80
2024/01/30 03:10:43;;;;;;;32.80;18.48;;;;;;;1.20;60.57;102084.22;7765645;32;38037;-80
2024/01/30 03:15:00;;;;;;;30.80;18.15;;;;;;;1.20;60.92;102091.47;7765854;32;40032;-80
2024/01/30 03:19:16;;;;;;;34.25;18.55;;;;;;;1.21;60.69;102087.75;7765599;32;39884;-80
2024/01/30 03:23:32;;;;;;;33.70;18.08;;;;;;;1.02;61.38;102086.94;7765437;32;38571;-80
2024/01/30 03:27:49;;;;;;;37.00;18.83;;;;;;;0.49;64.62;102088.50;7751655;32;37182;-80
2024/01/30 03:32:06;;;;;;;35.13;16.87;;;;;;;0.76;63.70;102084.13;7765489;32;40166;-80
2024/01/30 03:36:22;;;;;;;31.27;18.02;;;;;;;1.15;62.32;102078.47;7765183;32;40926;-80
2024/01/30 03:40:38;;;;;;;29.30;17.33;;;;;;;1.37;61.29;102071.78;7765372;32;38545;-80
2024/01/30 03:44:56;;;;;;;25.05;14.40;;;;;;;1.03;62.73;102083.22;7765397;32;37492;-81
2024/01/30 03:49:12;;;;;;;27.98;15.25;;;;;;;1.01;61.93;102071.78;7765351;32;39961;-80
2024/01/30 03:53:29;;;;;;;28.35;15.25;;;;;;;1.30;61.08;102066.19;7764917;32;40739;-80
2024/01/30 03:57:45;;;;;;;28.05;16.35;;;;;;;1.22;60.61;102062.59;7765226;32;38693;-80
2024/01/30 04:02:01;;;;;;;27.37;16.00;;;;;;;1.05;60.59;102067.81;7765195;32;37293;-80
2024/01/30 04:06:18;;;;;;;29.42;15.98;;;;;;;1.10;60.24;102062.84;7764403;32;40097;-80
2024/01/30 04:10:34;;;;;;;28.95;15.23;;;;;;;1.20;59.37;102053.84;7764942;32;40562;-80
2024/01/30 04:14:51;;;;;;;33.58;17.92;;;;;;;0.89;59.56;102065.78;7764881;32;38707;-80
2024/01/30 04:19:07;;;;;;;30.62;16.62;;;;;;;1.08;59.44;102061.28;7764956;32;38082;-80
2024/01/30 04:23:23;;;;;;;30.50;16.45;;;;;;;0.98;60.23;102057.81;7764662;32;39259;-80
2024/01/30 04:27:40;;;;;;;31.40;15.63;;;;;;;0.72;62.35;102056.72;7764831;32;39885;-80
2024/01/30 04:31:56;;;;;;;33.50;17.17;;;;;;;0.90;61.66;102067.50;7764667;32;37774;-80
2024/01/30 04:36:12;;;;;;;27.80;15.68;;;;;;;0.90;61.09;102072.03;7764398;32;37869;-80
2024/01/30 04:40:29;;;;;;;28.92;15.65;;;;;;;0.94;60.04;102081.47;7750885;32;39298;-80
2024/01/30 04:44:45;;;;;;;36.65;18.62;;;;;;;0.85;60.10;102085.06;7764316;32;40026;-80
2024/01/30 04:49:03;;;;;;;35.85;17.70;;;;;;;0.79;60.02;102082.97;7764448;32;37905;-80
2024/01/30 04:53:19;;;;;;;42.90;19.05;;;;;;;0.97;59.40;102086.53;7764368;32;37290;-80
2024/01/30 04:57:36;;;;;;;42.67;18.77;;;;;;;0.83;59.67;102093.28;7764466;32;39346;-80
2024/01/30 05:01:53;;;;;;;48.75;19.70;;;;;;;0.99;59.44;102095.28;7764159;32;40629;-80
2024/01/30 05:06:09;;;;;;;40.40;18.42;;;;;;;0.74;60.25;102102.22;7750244;32;38121;-80
2024/01/30 05:10:25;;;;;;;44.38;18.02;;;;;;;0.97;59.64;102097.28;7763896;32;37582;-80
2024/01/30 05:14:42;;;;;;;39.10;19.02;;;;;;;0.70;60.15;102112.41;7763869;32;40112;-81
2024/01/30 05:18:59;;;;;;;39.67;18.73;;;;;;;0.70;60.31;102117.78;7766528;32;40630;-81
2024/01/30 05:23:18;;;;;;;40.83;19.42;;;;;;;0.71;60.64;102124.03;7766888;32;37751;-81
2024/01/30 05:27:35;;;;;;;32.42;17.50;;;;;;;0.92;60.32;102121.06;7753079;32;38019;-81
2024/01/30 05:31:51;;;;;;;62.28;19.55;;;;;;;0.75;61.05;102128.91;7766990;32;40243;-80
2024/01/30 05:36:08;;;;;;;48.97;19.70;;;;;;;0.94;60.71;102119.91;7766728;32;40794;-80
2024/01/30 05:40:24;;;;;;;65.47;21.48;;;;;;;0.79;61.34;102128.63;7766907;32;37915;-80
2024/01/30 05:44:40;;;;;;;228.40;24.33;;;;;;;0.71;61.39;102119.50;7766841;32;37815;-80
2024/01/30 05:48:57;;;;;;;53.45;19.25;;;;;;;0.98;60.72;102115.06;7766647;32;39240;-80
2024/01/30 05:53:13;;;;;;;354.20;25.48;;;;;;;0.98;60.43;102120.44;7766641;32;40901;-80
2024/01/30 05:57:29;;;;;;;131.55;20.30;;;;;;;0.88;60.63;102114.28;7766565;32;38746;-80
2024/01/30 06:01:47;;;;;;;28.90;16.62;;;;;;;0.71;60.76;102114.13;7766543;32;38177;-80
2024/01/30 06:06:04;;;;;;;29.05;16.98;;;;;;;0.66;60.71;102116.41;7766574;32;39523;-80
2024/01/30 06:10:20;;;;;;;28.12;16.00;;;;;;;0.49;61.12;102122.56;7766265;32;40846;-80
2024/01/30 06:14:37;;;;;;;29.77;15.20;;;;;;;0.68;60.43;102122.47;7766371;32;38469;-80
2024/01/30 06:18:53;;;;;;;81.00;17.27;;;;;;;0.43;60.37;102121.34;7766434;32;37263;-80
2024/01/30 06:23:10;;;;;;;40.88;16.67;;;;;;;0.62;59.92;102131.13;7766213;32;40070;-80
2024/01/30 06:27:26;;;;;;;29.67;15.65;;;;;;;0.59;59.73;102120.69;7765818;32;39969;-80
2024/01/30 06:31:43;;;;;;;144.35;20.52;;;;;;;0.65;59.91;102124.59;7765438;32;37722;-81
2024/01/30 06:35:59;;;;;;;226.05;20.42;;;;;;;0.73;59.64;102122.88;7765932;32;37637;-81
2024/01/30 06:40:15;;;;;;;64.70;17.05;;;;;;;0.61;59.94;102129.44;7766159;32;39408;-81
2024/01/30 06:44:32;;;;;;;177.68;20.23;;;;;;;0.43;60.68;102125.84;7766005;32;39761;-82
2024/01/30 06:48:48;;;;;;;142.07;19.02;;;;;;;0.62;60.21;102130.25;7766045;32;37726;-81
2024/01/30 06:53:05;;;;;;;96.28;17.08;;;;;;;0.41;61.09;102135.88;7766021;32;37867;-81
2024/01/30 06:57:21;;;;;;;66.22;16.80;;;;;;;0.60;60.71;102124.22;7765395;32;40079;-80
2024/01/30 07:01:37;;;;;;;230.52;21.87;;;;;;;0.51;61.22;102125.94;7765789;32;40892;-80
2024/01/30 07:05:54;;;;;;;174.40;19.58;;;;;;;0.33;62.18;102120.53;7765659;32;37923;-81
2024/01/30 07:10:10;;;;;;;145.10;20.02;;;;;;;0.45;62.31;102132.75;7765874;32;37293;-81
2024/01/30 07:14:27;;;;;;;75.95;17.42;;;;;;;0.51;62.25;102128.63;7765597;32;39870;-81
2024/01/30 07:18:44;;;;;;;28.30;16.00;;;;;;;0.67;62.10;102127.97;7765646;32;40788;-82
2024/01/30 07:23:00;;;;;;;31.02;15.35;;;;;;;0.72;62.54;102125.69;7737356;32;38578;-82
2024/01/30 07:27:17;;;;;;;28.30;15.95;;;;;;;1.19;62.17;102117.50;7738558;32;36998;-80
2024/01/30 07:31:34;;;;;;;34.28;16.62;;;;;;;1.24;62.96;102119.69;7738552;32;39404;-82
2024/01/30 07:35:52;;;;;;;33.33;19.50;;;;;;;1.58;61.90;102116.31;7738786;32;40681;-80
2024/01/30 07:40:09;;;;;;;37.03;19.27;;;;;;;1.86;62.19;102125.97;7737638;32;38751;-80
2024/01/30 07:44:25;;;;;;;37.30;19.33;;;;;;;2.01;61.09;102128.06;7738506;32;36957;-81
2024/01/30 07:48:42;;;;;;;39.20;18.35;;;;;;;1.43;61.96;102130.31;7738385;32;39290;-81
2024/01/30 07:53:00;;;;;;;34.30;18.87;;;;;;;1.74;61.94;102129.03;7737894;32;39865;-81
2024/01/30 07:57:17;;;;;;;29.42;15.98;;;;;;;2.21;61.47;102124.16;7736940;32;37688;-76
2024/01/30 08:01:34;;;;;;;27.23;15.57;;;;;;;2.57;63.02;102123.16;7736715;32;36070;-81
2024/01/30 08:05:50;;;;;;;26.65;14.38;;;;;;;2.85;63.08;102125.63;7738295;32;39387;-81
2024/01/30 08:10:07;;;;;;;23.42;13.20;;;;;;;3.37;61.09;102120.84;7738095;32;40595;-81
2024/01/30 08:14:23;;;;;;;22.45;14.43;;;;;;;3.62;60.55;102123.53;7737953;32;37985;-81
2024/01/30 08:18:40;;;;;;;27.70;13.90;;;;;;;3.64;60.61;102116.12;7736982;32;37347;-81
2024/01/30 08:22:56;;;;;;;25.62;13.73;;;;;;;3.83;60.44;102116.78;7751149;32;167113;-81
2024/01/30 08:27:13;;;;;;;25.52;12.37;;;;;;;4.16;59.37;102119.44;7751032;32;40734;-81
2024/01/30 08:31:29;;;;;;;25.80;13.45;;;;;;;4.32;59.14;102117.53;7764551;32;38063;-81
2024/01/30 08:35:46;;;;;;;22.15;13.40;;;;;;;4.59;58.19;102114.56;7764556;32;38048;-81
2024/01/30 08:40:04;;;;;;;23.15;12.80;;;;;;;4.56;58.52;102117.63;7764575;32;40566;-81
2024/01/30 08:44:21;;;;;;;24.98;13.30;;;;;;;4.72;57.78;102109.44;7764598;32;39041;-80
2024/01/30 08:48:37;;;;;;;24.08;13.95;;;;;;;4.94;57.69;102106.97;7764424;32;38632;-80
2024/01/30 08:52:53;;;;;;;24.58;13.13;;;;;;;5.03;57.73;102097.78;7763080;32;37423;-80
2024/01/30 08:57:10;;;;;;;29.15;12.75;;;;;;;5.38;56.60;102099.09;7763150;32;38064;-80
2024/01/30 09:01:27;;;;;;;24.83;11.73;;;;;;;5.42;56.45;102099.56;7763836;32;40683;-81
2024/01/30 09:05:44;;;;;;;20.75;10.98;;;;;;;5.75;55.33;102089.28;7763779;32;37992;-81
2024/01/30 09:10:00;;;;;;;21.08;11.00;;;;;;;5.81;54.99;102098.53;7764021;32;37987;-81
2024/01/30 09:14:16;;;;;;;24.85;11.52;;;;;;;6.05;54.15;102100.19;7763070;32;39091;-81
2024/01/30 09:18:33;;;;;;;23.60;11.30;;;;;;;6.38;53.06;102089.84;7763303;32;40455;-81
2024/01/30 09:22:50;;;;;;;22.80;11.73;;;;;;;6.24;53.56;102104.22;7763403;32;38048;-81
2024/01/30 09:27:06;;;;;;;24.02;11.48;;;;;;;6.38;52.91;102095.25;7762794;32;37400;-79
2024/01/30 09:31:22;;;;;;;17.98;10.10;;;;;;;6.51;52.18;102082.91;7763552;32;39202;-72
2024/01/30 09:35:39;;;;;;;23.38;11.10;;;;;;;6.94;54.98;102089.28;7763313;32;40017;-81
2024/01/30 09:39:56;;;;;;;21.27;10.70;;;;;;;7.24;50.71;102089.16;7748875;32;38835;-81
2024/01/30 09:44:13;;;;;;;20.60;10.88;;;;;;;7.42;52.46;102080.59;7763285;32;37266;-81
2024/01/30 09:48:30;;;;;;;20.65;9.90;;;;;;;7.81;48.68;102073.81;7749058;32;39454;-81
2024/01/30 09:52:47;;;;;;;17.12;9.98;;;;;;;8.02;48.20;102088.34;7763092;32;39738;-82
2024/01/30 09:57:04;;;;;;;22.02;10.77;;;;;;;7.94;47.97;102088.53;7763212;32;36053;-81
2024/01/30 10:01:21;;;;;;;17.58;10.68;;;;;;;8.24;47.81;102083.69;7762800;32;36936;-81
2024/01/30 10:05:40;;;;;;;20.92;10.80;;;;;;;8.32;47.43;102077.25;7765568;32;39851;-81
2024/01/30 10:09:56;;;;;;;19.00;10.60;;;;;;;8.29;47.40;102086.63;7766056;32;39913;-81
2024/01/30 10:14:14;;;;;;;18.20;10.40;;;;;;;8.31;47.67;102084.56;7766383;32;38737;-81
2024/01/30 10:18:30;;;;;;;20.48;9.82;;;;;;;8.63;46.91;102083.06;7766131;32;37214;-82
2024/01/30 10:22:47;;;;;;;19.70;10.68;;;;;;;9.03;46.00;102061.44;7766014;32;39155;-82
2024/01/30 10:27:05;;;;;;;18.60;10.20;;;;;;;9.50;44.71;102060.66;7752439;32;40863;-82
2024/01/30 10:31:22;;;;;;;17.45;9.52;;;;;;;9.67;44.18;102048.28;7765983;32;40316;-81
2024/01/30 10:35:39;;;;;;;18.98;9.82;;;;;;;10.04;43.34;102043.22;7766196;32;37108;-82
2024/01/30 10:39:56;;;;;;;19.17;9.80;;;;;;;10.01;42.79;102030.03;7766216;32;39498;-82
2024/01/30 10:44:15;;;;;;;19.40;9.93;;;;;;;10.03;43.63;102032.53;7752333;32;40025;-82
2024/01/30 10:48:32;;;;;;;16.90;9.75;;;;;;;10.32;43.14;102020.31;7752454;32;38060;-82
2024/01/30 10:52:49;;;;;;;18.10;10.05;;;;;;;10.59;42.11;102012.00;7765965;32;37904;-82
2024/01/30 10:57:06;;;;;;;20.67;11.20;;;;;;;10.75;41.87;102008.78;7765901;32;39356;-82
2024/01/30 11:01:24;;;;;;;20.30;11.05;;;;;;;11.02;41.06;101989.50;7765779;32;39941;-82
2024/01/30 11:05:41;;;;;;;20.70;11.65;;;;;;;11.18;40.89;101991.69;7752015;32;37783;-82
2024/01/30 11:09:58;;;;;;;17.92;10.43;;;;;;;11.34;40.33;101989.47;7765634;32;37968;-82
2024/01/30 11:14:17;;;;;;;17.70;10.70;;;;;;;11.47;40.17;101983.91;7764471;32;39344;-82
2024/01/30 11:18:37;;;;;;;19.65;11.75;;;;;;;11.63;40.01;101983.31;7765579;32;39685;-82
2024/01/30 11:22:56;;;;;;;20.65;11.60;;;;;;;12.18;38.73;101981.69;7765381;32;38053;-82
2024/01/30 11:27:15;;;;;;;21.27;11.32;;;;;;;12.33;38.61;101976.66;7765521;32;37276;-82
2024/01/30 11:31:31;;;;;;;23.17;11.00;;;;;;;12.45;37.98;101970.41;7765327;32;40076;-82
2024/01/30 11:35:48;;;;;;;21.17;10.88;;;;;;;12.15;38.62;101973.94;7765250;32;40776;-82
2024/01/30 11:40:05;;;;;;;20.55;11.50;;;;;;;12.40;38.43;101965.66;7765189;32;38121;-82
2024/01/30 11:44:22;;;;;;;19.73;10.57;;;;;;;12.61;38.25;101961.56;7765177;32;37156;-82
2024/01/30 11:48:40;;;;;;;19.85;11.68;;;;;;;12.91;36.63;101947.81;7765289;32;39143;-83
2024/01/30 11:52:57;;;;;;;23.42;11.38;;;;;;;12.84;36.98;101938.06;7765142;32;39762;-83
2024/01/30 11:57:14;;;;;;;18.60;10.85;;;;;;;12.84;36.83;101938.87;7765134;32;38728;-82
2024/01/30 12:01:31;;;;;;;18.83;9.50;;;;;;;13.24;36.48;101926.44;7765112;32;37268;-81
2024/01/30 12:05:56;;;;;;;19.58;10.65;;;;;;;13.09;36.42;101922.28;7751723;32;39227;-81
2024/01/30 12:10:14;;;;;;;19.80;10.80;;;;;;;13.49;35.85;101918.84;7765218;32;40054;-82
2024/01/30 12:14:31;;;;;;;20.52;10.90;;;;;;;13.12;35.94;101913.59;7764846;32;37876;-82
2024/01/30 12:18:48;;;;;;;19.58;10.98;;;;;;;13.26;36.27;101911.47;7751230;32;37476;-81
2024/01/30 12:23:04;;;;;;;20.55;11.52;;;;;;;13.67;35.55;101911.56;7764790;32;39914;-81
2024/01/30 12:27:21;;;;;;;14.77;9.32;;;;;;;13.90;35.45;101908.78;7750504;32;40555;-82
2024/01/30 12:31:37;;;;;;;17.67;9.80;;;;;;;13.93;34.08;101901.13;7764777;32;38065;-82
2024/01/30 12:35:54;;;;;;;20.35;9.68;;;;;;;14.00;33.27;101899.09;7764727;32;37300;-82
2024/01/30 12:40:18;;;;;;;14.45;8.60;;;;;;;13.90;33.30;101895.06;7751983;32;40078;-82
2024/01/30 12:44:35;;;;;;;14.63;7.97;;;;;;;14.32;30.69;101893.97;7738176;32;39921;-83
2024/01/30 12:48:51;;;;;;;17.10;9.38;;;;;;;14.04;31.05;101889.31;7750593;32;37991;-82
2024/01/30 12:53:09;;;;;;;15.18;8.73;;;;;;;14.16;31.42;101890.09;7764436;32;37213;-83
2024/01/30 12:57:25;;;;;;;17.62;9.95;;;;;;;13.58;32.44;101891.91;7764546;32;39221;-80
2024/01/30 13:01:41;;;;;;;17.17;9.48;;;;;;;13.70;32.91;101887.25;7764328;32;40610;-83
2024/01/30 13:05:58;;;;;;;18.75;10.45;;;;;;;13.56;32.18;101880.38;7764196;32;38718;-82
2024/01/30 13:10:14;;;;;;;18.70;10.27;;;;;;;13.70;32.90;101880.94;7750478;32;37035;-82
2024/01/30 13:14:31;;;;;;;15.70;9.27;;;;;;;13.44;32.71;101879.56;7764040;32;39140;-80
2024/01/30 13:18:47;;;;;;;17.65;9.15;;;;;;;14.24;31.18;101870.47;7763948;32;40120;-80
2024/01/30 13:23:04;;;;;;;15.80;8.20;;;;;;;14.65;30.33;101865.75;7763644;32;38517;-82
2024/01/30 13:27:21;;;;;;;14.68;8.77;;;;;;;14.16;31.02;101868.16;7763774;32;37009;-82
2024/01/30 13:31:39;;;;;;;15.45;9.35;;;;;;;14.53;30.33;101873.22;7750066;32;40097;-81
2024/01/30 13:35:55;;;;;;;15.60;7.68;;;;;;;14.60;30.14;101871.16;7763471;32;41663;-81
2024/01/30 13:40:14;;;;;;;16.95;8.52;;;;;;;14.37;30.08;101872.09;7766150;32;38614;-79
2024/01/30 13:44:31;;;;;;;15.52;8.73;;;;;;;14.65;30.46;101865.75;7766974;32;37497;-81
2024/01/30 13:48:47;;;;;;;16.85;8.50;;;;;;;14.99;29.59;101865.78;7766510;32;39535;-79
2024/01/30 13:53:04;;;;;;;17.65;9.05;;;;;;;14.94;29.16;101862.94;7766769;32;40782;-81
2024/01/30 13:57:21;;;;;;;15.40;8.65;;;;;;;15.40;28.07;101866.38;7766662;32;37660;-80
2024/01/30 14:01:37;;;;;;;14.90;7.80;;;;;;;14.77;30.19;101865.69;7766015;32;37218;-80
2024/01/30 14:05:54;;;;;;;15.90;8.25;;;;;;;15.24;29.09;101861.72;7765490;32;40114;-80
2024/01/30 14:10:12;;;;;;;16.02;8.00;;;;;;;15.82;28.11;101858.69;7763522;32;40935;-80
2024/01/30 14:14:30;;;;;;;17.77;8.82;;;;;;;16.22;27.92;101849.22;7753113;32;38394;-80
2024/01/30 14:18:47;;;;;;;13.75;7.80;;;;;;;16.65;26.57;101847.41;7759614;32;37744;-80
2024/01/30 14:23:03;;;;;;;14.18;7.90;;;;;;;17.42;25.98;101843.28;7766351;32;39399;-82
2024/01/30 14:27:20;;;;;;;13.88;7.87;;;;;;;18.83;23.56;101829.53;7765590;32;39884;-81
2024/01/30 14:31:36;;;;;;;14.30;7.95;;;;;;;21.70;20.32;101810.16;7759656;32;38036;-81
2024/01/30 14:35:53;;;;;;;14.75;7.85;;;;;;;23.85;17.35;101819.44;7762992;32;36820;-81
2024/01/30 14:40:10;;;;;;;13.48;7.95;;;;;;;22.94;17.75;101814.56;7765603;32;39513;-81
2024/01/30 14:44:27;;;;;;;12.35;6.87;;;;;;;24.10;17.07;101822.81;7765125;32;40930;-81
2024/01/30 14:48:43;;;;;;;13.30;7.32;;;;;;;25.03;15.87;101805.41;7765751;32;37992;-75
2024/01/30 14:53:00;;;;;;;11.25;6.80;;;;;;;25.25;15.43;101806.44;7765005;32;38481;-80
2024/01/30 14:57:16;;;;;;;11.50;6.25;;;;;;;24.33;15.97;101813.28;7765853;32;40084;-72
2024/01/30 15:01:33;;;;;;;9.80;6.25;;;;;;;23.27;17.04;101823.72;7751229;32;40528;-81
2024/01/30 15:05:50;;;;;;;12.35;6.35;;;;;;;24.19;15.89;101827.28;7765717;32;37819;-80
2024/01/30 15:10:09;;;;;;;12.23;6.10;;;;;;;22.68;17.30;101823.41;7751579;32;38125;-81
2024/01/30 15:14:27;;;;;;;11.85;6.10;;;;;;;21.02;18.54;101828.66;7764942;32;39789;-81
2024/01/30 15:18:43;;;;;;;10.52;5.87;;;;;;;20.72;19.16;101829.78;7765686;32;40900;-81
2024/01/30 15:23:00;;;;;;;11.75;6.57;;;;;;;20.88;18.72;101828.50;7764441;32;38678;-81
2024/01/30 15:27:16;;;;;;;10.73;6.28;;;;;;;20.75;18.62;101829.22;7765539;32;38349;-81
2024/01/30 15:31:33;;;;;;;9.77;5.78;;;;;;;18.68;20.94;101838.62;7751234;32;39199;-80
2024/01/30 15:35:49;;;;;;;14.23;7.70;;;;;;;16.36;23.83;101844.13;7765062;32;40107;-76
2024/01/30 15:40:06;;;;;;;12.35;7.43;;;;;;;14.06;26.99;101862.47;7765121;32;37915;-81
2024/01/30 15:44:23;;;;;;;15.07;7.45;;;;;;;12.59;29.45;101863.28;7764457;32;36864;-80
2024/01/30 15:48:40;;;;;;;14.80;7.30;;;;;;;12.02;30.42;101871.91;7765271;32;37894;-82
2024/01/30 15:52:57;;;;;;;15.02;8.07;;;;;;;11.28;31.93;101876.53;7764418;32;40572;-75
2024/01/30 15:57:13;;;;;;;14.13;7.25;;;;;;;10.28;33.90;101885.47;7765083;32;38088;-82
2024/01/30 16:01:30;;;;;;;14.10;7.53;;;;;;;9.81;34.80;101887.56;7763834;32;37126;-83
2024/01/30 16:05:47;;;;;;;14.82;7.97;;;;;;;9.43;35.76;101893.75;7758626;32;38969;-82
2024/01/30 16:10:04;;;;;;;16.80;7.62;;;;;;;9.42;35.94;101884.75;7765065;32;39965;-82
2024/01/30 16:14:21;;;;;;;18.35;8.23;;;;;;;8.61;37.36;101883.97;7764104;32;38481;-82
2024/01/30 16:18:39;;;;;;;16.40;7.70;;;;;;;8.34;38.14;101887.66;7764998;32;37109;-82
2024/01/30 16:22:55;;;;;;;13.32;7.25;;;;;;;8.11;38.73;101894.28;7764468;32;40101;-83
2024/01/30 16:27:12;;;;;;;12.80;6.87;;;;;;;7.74;39.55;101888.25;7764495;32;40805;-82
2024/01/30 16:31:29;;;;;;;12.43;6.70;;;;;;;7.34;40.64;101893.47;7764041;32;38606;-82
2024/01/30 16:35:46;;;;;;;11.32;6.18;;;;;;;7.21;40.81;101890.66;7763878;32;37365;-81
2024/01/30 16:40:04;;;;;;;12.48;6.40;;;;;;;7.17;40.48;101892.09;7764804;32;39977;-80
2024/01/30 16:44:20;;;;;;;12.93;6.87;;;;;;;7.06;40.47;101894.31;7763749;32;39662;-81
2024/01/30 16:48:37;;;;;;;11.85;6.50;;;;;;;6.88;41.05;101894.81;7764616;32;37908;-82
2024/01/30 16:52:53;;;;;;;12.93;6.47;;;;;;;6.71;41.19;101893.38;7763870;32;37239;-81
2024/01/30 16:57:10;;;;;;;9.75;6.40;;;;;;;6.74;41.38;101890.28;7763936;32;39306;-81
2024/01/30 17:01:26;;;;;;;14.30;6.82;;;;;;;6.81;41.06;101887.66;7763684;32;39900;-82
2024/01/30 17:05:42;;;;;;;11.50;6.65;;;;;;;6.45;41.81;101889.41;7763589;32;38416;-82
2024/01/30 17:09:59;;;;;;;11.27;6.30;;;;;;;6.34;42.18;101888.03;7764214;32;37912;-82
2024/01/30 17:14:17;;;;;;;11.38;7.28;;;;;;;6.48;41.90;101890.87;7763391;32;39541;-82
2024/01/30 17:18:35;;;;;;;13.43;7.53;;;;;;;6.18;42.71;101891.00;7763612;32;38867;-82
2024/01/30 17:22:51;;;;;;;13.75;7.32;;;;;;;6.16;42.86;101882.22;7763085;32;37923;-82
2024/01/30 17:27:12;;;;;;;17.75;7.75;;;;;;;5.90;43.36;101878.16;7763088;32;37827;-81
2024/01/30 17:31:29;;;;;;;15.13;7.72;;;;;;;5.65;44.02;101881.16;7763536;32;40154;-81
2024/01/30 17:35:46;;;;;;;14.80;7.12;;;;;;;5.93;43.18;101880.50;7762551;32;41249;-80
2024/01/30 17:40:03;;;;;;;17.52;7.82;;;;;;;6.01;42.85;101877.69;7763434;32;37683;-81
2024/01/30 17:44:20;;;;;;;14.87;8.57;;;;;;;5.69;43.63;101881.66;7762751;32;37226;-81
2024/01/30 17:48:37;;;;;;;21.33;10.52;;;;;;;5.61;44.31;101877.16;7762901;32;39263;-82
2024/01/30 17:52:54;;;;;;;22.80;11.85;;;;;;;5.41;45.50;101876.03;7762449;32;40007;-82
2024/01/30 17:57:10;;;;;;;22.10;12.30;;;;;;;5.14;47.00;101875.66;7761969;32;38771;-81
2024/01/30 18:01:28;;;;;;;24.48;13.48;;;;;;;5.05;47.61;101876.75;7762696;32;37175;-82
2024/01/30 18:05:44;;;;;;;28.02;13.88;;;;;;;5.04;47.75;101875.09;7762404;32;39094;-81
2024/01/30 18:10:01;;;;;;;27.85;14.48;;;;;;;4.99;48.24;101872.94;7748390;32;39633;-82
2024/01/30 18:14:18;;;;;;;31.37;16.67;;;;;;;4.59;49.78;101868.72;7761897;32;38809;-81
2024/01/30 18:18:35;;;;;;;29.90;15.30;;;;;;;4.66;49.83;101872.41;7762017;32;37263;-81
2024/01/30 18:22:52;;;;;;;34.08;16.52;;;;;;;4.53;51.08;101875.69;7761648;32;40283;-81
2024/01/30 18:27:09;;;;;;;29.92;16.62;;;;;;;4.16;52.06;101881.84;7765625;32;40763;-81
2024/01/30 18:31:26;;;;;;;29.35;17.42;;;;;;;4.34;51.39;101874.31;7764951;32;37973;-81
2024/01/30 18:35:42;;;;;;;32.33;17.85;;;;;;;4.37;51.36;101873.97;7738795;32;37191;-80
2024/01/30 18:39:58;;;;;;;37.40;18.98;;;;;;;4.62;50.69;101882.72;7765199;32;40212;-80
2024/01/30 18:44:15;;;;;;;35.88;17.73;;;;;;;4.43;51.36;101872.38;7764676;32;39808;-81
2024/01/30 18:48:31;;;;;;;38.00;20.40;;;;;;;4.29;52.30;101877.56;7766019;32;38790;-81
2024/01/30 18:52:48;;;;;;;37.22;20.23;;;;;;;4.18;52.79;101886.06;7763502;32;37274;-80
2024/01/30 18:57:04;;;;;;;34.90;20.27;;;;;;;4.04;53.43;101884.97;7764414;32;40082;-81
2024/01/30 19:01:21;;;;;;;37.70;20.58;;;;;;;3.98;53.65;101874.88;7765736;32;39731;-81
2024/01/30 19:05:38;;;;;;;40.42;20.67;;;;;;;3.79;54.15;101875.31;7765805;32;38778;-80
2024/01/30 19:09:55;;;;;;;35.90;19.83;;;;;;;3.66;54.89;101876.72;7765795;32;37843;-80
2024/01/30 19:14:11;;;;;;;38.75;20.75;;;;;;;4.04;53.76;101874.16;7765676;32;40070;-80
2024/01/30 19:18:29;;;;;;;38.47;20.40;;;;;;;3.86;54.70;101876.28;7764891;32;40969;-82
2024/01/30 19:22:46;;;;;;;37.78;21.85;;;;;;;4.04;53.97;101871.47;7762236;32;35831;-81
2024/01/30 19:27:02;;;;;;;43.78;22.20;;;;;;;4.04;53.60;101873.34;7765444;32;37492;-81
2024/01/30 19:31:20;;;;;;;36.30;21.90;;;;;;;3.81;54.39;101868.72;7765505;32;39821;-81
2024/01/30 19:35:37;;;;;;;39.60;21.80;;;;;;;3.73;54.63;101861.50;7764257;32;39955;-82
2024/01/30 19:39:53;;;;;;;38.30;21.27;;;;;;;3.48;55.81;101868.00;7765362;32;38966;-81